Time;durP1;ratioP1;P1;durP2;ratioP2;P2;SDS_P1;SDS_P2;PMS_P1;PMS_P2;Temp;Humidity;BMP_temperature;BMP_pressure;BME280_temperature;BME280_humidity;BME280_pressure;Samples;Min_cycle;Max_cycle;Signal;HPM_P1;HPM_P2
2020/12/26 00:01:19;;;;;;;0.10;0.10;;;;;;;-0.17;100.00;100309.67;1777830;79;21105;-55
2020/12/26 00:03:48;;;;;;;0.53;0.53;;;;;;;-0.15;100.00;100306.75;1795694;79;21138;-55
2020/12/26 00:06:16;;;;;;;1.07;0.20;;;;;;;-0.16;100.00;100307.28;1789268;79;21685;-55
2020/12/26 00:08:44;;;;;;;0.00;0.00;;;;;;;-0.17;100.00;100309.67;1767022;79;21190;-55
2020/12/26 00:11:13;;;;;;;0.00;0.00;;;;;;;-0.17;100.00;100309.67;1782843;79;20971;-54
2020/12/26 00:13:42;;;;;;;1.85;0.30;;;;;;;-0.18;100.00;100315.25;1733304;82;21166;-55
2020/12/26 00:16:10;;;;;;;0.00;0.00;;;;;;;-0.20;100.00;100319.47;1772599;80;21545;-55
2020/12/26 00:18:38;;;;;;;0.23;0.23;;;;;;;-0.22;100.00;100328.28;1762053;81;21197;-54
2020/12/26 00:21:07;;;;;;;0.45;0.45;;;;;;;-0.22;100.00;100339.03;1757246;81;21119;-55
2020/12/26 00:23:34;;;;;;;2.25;0.30;;;;;;;-0.22;100.00;100342.53;1772582;80;21111;-54
2020/12/26 00:26:02;;;;;;;0.00;0.00;;;;;;;-0.22;100.00;100338.50;1767770;80;21635;-54
2020/12/26 00:28:29;;;;;;;0.33;0.20;;;;;;;-0.21;100.00;100339.33;1771076;80;21174;-54
2020/12/26 00:30:57;;;;;;;0.45;0.45;;;;;;;-0.21;100.00;100344.69;1756303;80;21542;-55
2020/12/26 00:33:25;;;;;;;0.33;0.33;;;;;;;-0.21;100.00;100358.13;1753765;80;21122;-55
2020/12/26 00:35:52;;;;;;;0.20;0.20;;;;;;;-0.21;100.00;100354.09;1748019;80;20965;-55
2020/12/26 00:38:19;;;;;;;0.00;0.00;;;;;;;-0.21;100.00;100348.72;1768716;79;21363;-54
2020/12/26 00:40:47;;;;;;;0.28;0.28;;;;;;;-0.22;100.00;100343.88;1772037;80;21154;-55
2020/12/26 00:43:14;;;;;;;0.00;0.00;;;;;;;-0.21;100.00;100350.06;1763144;80;21150;-54
2020/12/26 00:45:43;;;;;;;0.10;0.10;;;;;;;-0.23;100.00;100346.77;1767107;80;21160;-55
2020/12/26 00:48:10;;;;;;;0.13;0.13;;;;;;;-0.22;100.00;100345.74;1757281;80;21440;-54
2020/12/26 00:50:38;;;;;;;0.00;0.00;;;;;;;-0.23;100.00;100341.39;1771321;80;21968;-54
2020/12/26 00:53:05;;;;;;;0.28;0.28;;;;;;;-0.23;100.00;100343.55;1770231;80;21237;-54
2020/12/26 00:55:33;;;;;;;0.10;0.10;;;;;;;-0.23;100.00;100344.89;1772707;80;21128;-54
2020/12/26 00:58:01;;;;;;;0.40;0.40;;;;;;;-0.22;100.00;100338.50;1756805;80;21146;-54
2020/12/26 01:00:28;;;;;;;0.33;0.33;;;;;;;-0.23;100.00;100338.17;1757065;80;21122;-55
2020/12/26 01:02:58;;;;;;;0.00;0.00;;;;;;;-0.23;100.00;100340.86;1758938;80;22036;-55
2020/12/26 01:05:26;;;;;;;0.23;0.23;;;;;;;-0.22;100.00;100347.09;1727655;81;21588;-54
2020/12/26 01:07:53;;;;;;;1.85;0.78;;;;;;;-0.22;100.00;100355.14;1741975;80;21136;-54
2020/12/26 01:10:21;;;;;;;0.88;0.62;;;;;;;-0.22;100.00;100368.57;1766142;79;21607;-54
2020/12/26 01:12:49;;;;;;;1.15;0.75;;;;;;;-0.22;100.00;100369.91;1779445;79;21139;-55
2020/12/26 01:15:17;;;;;;;0.62;0.42;;;;;;;-0.21;100.00;100376.92;1793918;79;21495;-54
2020/12/26 01:17:45;;;;;;;0.20;0.20;;;;;;;-0.22;100.00;100374.76;1789179;79;21549;-54
2020/12/26 01:20:13;;;;;;;0.00;0.00;;;;;;;-0.23;100.00;100368.25;1787437;80;21118;-55
2020/12/26 01:22:41;;;;;;;0.15;0.15;;;;;;;-0.24;100.00;100371.45;1783117;79;21118;-54
2020/12/26 01:25:09;;;;;;;0.00;0.00;;;;;;;-0.22;100.00;100367.23;1769842;79;21130;-54
2020/12/26 01:27:38;;;;;;;0.00;0.00;;;;;;;-0.23;100.00;100361.00;1772427;79;21140;-54
2020/12/26 01:30:06;;;;;;;0.00;0.00;;;;;;;-0.21;100.00;100363.49;1765534;79;21208;-55
2020/12/26 01:32:33;;;;;;;1.10;0.40;;;;;;;-0.19;100.00;100361.42;1794672;79;21124;-54
2020/12/26 01:35:01;;;;;;;0.13;0.13;;;;;;;-0.20;100.00;100358.94;1774606;79;21190;-55
2020/12/26 01:37:28;;;;;;;0.00;0.00;;;;;;;-0.20;100.00;100357.08;1788244;79;21403;-55
2020/12/26 01:39:56;;;;;;;0.00;0.00;;;;;;;-0.20;100.00;100350.36;1781046;79;21174;-55
2020/12/26 01:42:24;;;;;;;0.17;0.17;;;;;;;-0.20;100.00;100349.02;1791790;79;21123;-55
2020/12/26 01:44:51;;;;;;;0.23;0.23;;;;;;;-0.19;100.00;100354.71;1762544;81;21402;-55
2020/12/26 01:47:19;;;;;;;0.00;0.00;;;;;;;-0.18;100.00;100348.81;1764322;79;21123;-55
2020/12/26 01:49:46;;;;;;;0.10;0.10;;;;;;;-0.18;100.00;100358.22;1787947;79;21126;-54
2020/12/26 01:52:14;;;;;;;0.47;0.40;;;;;;;-0.18;100.00;100357.69;1794267;79;21142;-55
2020/12/26 01:54:43;;;;;;;0.00;0.00;;;;;;;-0.18;100.00;100356.34;1793170;79;21675;-54
2020/12/26 01:57:11;;;;;;;0.45;0.45;;;;;;;-0.17;100.00;100360.70;1769817;79;21572;-55
2020/12/26 01:59:39;;;;;;;0.65;0.62;;;;;;;-0.18;100.00;100364.41;1792276;79;21138;-54
2020/12/26 02:02:07;;;;;;;0.20;0.20;;;;;;;-0.16;100.00;100358.84;1764751;79;21590;-55
2020/12/26 02:04:35;;;;;;;0.10;0.10;;;;;;;-0.17;100.00;100363.39;1762874;80;21398;-54
2020/12/26 02:07:04;;;;;;;0.65;0.65;;;;;;;-0.18;100.00;100367.09;1775274;79;21123;-54
2020/12/26 02:09:33;;;;;;;0.10;0.10;;;;;;;-0.18;100.00;100369.78;1779421;79;21141;-59
2020/12/26 02:12:00;;;;;;;0.20;0.20;;;;;;;-0.18;100.00;100371.12;1786635;79;21560;-55
2020/12/26 02:14:28;;;;;;;0.20;0.20;;;;;;;-0.17;100.00;100366.08;1801570;79;21114;-54
2020/12/26 02:16:55;;;;;;;0.00;0.00;;;;;;;-0.15;100.00;100377.94;1803649;79;21178;-55
2020/12/26 02:19:24;;;;;;;0.00;0.00;;;;;;;-0.14;100.00;100370.20;1803885;79;21428;-54
2020/12/26 02:21:52;;;;;;;0.10;0.10;;;;;;;-0.12;100.00;100366.27;1774435;79;21001;-54
2020/12/26 02:24:19;;;;;;;0.23;0.23;;;;;;;-0.10;100.00;100365.55;1778618;79;21145;-54
2020/12/26 02:26:48;;;;;;;0.00;0.00;;;;;;;-0.08;100.00;100363.97;1791552;80;21124;-55
2020/12/26 02:29:15;;;;;;;0.57;0.57;;;;;;;-0.07;100.00;100361.08;1795060;79;21170;-55
2020/12/26 02:31:43;;;;;;;0.33;0.30;;;;;;;-0.05;100.00;100363.05;1793883;78;21192;-55
2020/12/26 02:34:10;;;;;;;0.00;0.00;;;;;;;-0.03;100.00;100358.78;1771541;80;21159;-55
2020/12/26 02:36:38;;;;;;;0.50;0.50;;;;;;;-0.03;100.00;100356.09;1823662;78;21589;-55
2020/12/26 02:39:05;;;;;;;1.55;1.20;;;;;;;-0.02;100.00;100363.95;1783502;79;21126;-55
2020/12/26 02:41:33;;;;;;;0.05;0.05;;;;;;;0.01;100.00;100363.23;1772229;79;21146;-54
2020/12/26 02:44:01;;;;;;;0.10;0.10;;;;;;;0.02;100.00;100368.90;1794656;79;21133;-54
2020/12/26 02:46:28;;;;;;;0.10;0.10;;;;;;;0.02;100.00;100368.90;1794686;79;21135;-55
2020/12/26 02:48:56;;;;;;;0.00;0.00;;;;;;;0.02;100.00;100376.95;1788371;78;21259;-55
2020/12/26 02:51:23;;;;;;;0.08;0.08;;;;;;;0.02;100.00;100375.09;1763934;79;21108;-55
2020/12/26 02:53:50;;;;;;;0.10;0.10;;;;;;;0.03;100.00;100375.94;1790681;78;21116;-55
2020/12/26 02:56:18;;;;;;;0.10;0.10;;;;;;;0.03;100.00;100371.91;1794732;79;21137;-55
2020/12/26 02:58:46;;;;;;;0.30;0.30;;;;;;;0.03;100.00;100376.76;1788693;79;21039;-54
2020/12/26 03:01:14;;;;;;;0.72;0.72;;;;;;;0.03;100.00;100382.13;1788609;79;21150;-55
2020/12/26 03:03:41;;;;;;;0.00;0.00;;;;;;;0.04;100.00;100384.30;1763218;81;21130;-55
2020/12/26 03:06:14;;;;;;;0.75;0.62;;;;;;;0.03;100.00;100387.50;1758860;80;21133;-54
2020/12/26 03:08:41;;;;;;;0.00;0.00;;;;;;;0.02;100.00;100387.70;1767373;79;21796;-54
2020/12/26 03:11:09;;;;;;;0.35;0.35;;;;;;;0.01;100.00;100391.44;1794115;79;21540;-55
2020/12/26 03:13:37;;;;;;;2.52;0.35;;;;;;;-0.01;100.00;100391.64;1818235;78;21150;-54
2020/12/26 03:16:04;;;;;;;0.10;0.10;;;;;;;-0.02;100.00;100394.85;1763436;81;21118;-54
2020/12/26 03:18:32;;;;;;;0.00;0.00;;;;;;;-0.04;100.00;100392.89;1764165;79;21124;-55
2020/12/26 03:21:03;;;;;;;0.20;0.15;;;;;;;-0.04;100.00;100392.89;1759889;81;21600;-54
2020/12/26 03:23:31;;;;;;;0.00;0.00;;;;;;;-0.04;100.00;100398.26;1783256;79;21137;-54
2020/12/26 03:25:58;;;;;;;0.30;0.30;;;;;;;-0.05;100.00;100397.97;1792029;79;21181;-55
2020/12/26 03:28:26;;;;;;;0.00;0.00;;;;;;;-0.06;100.00;100404.36;1786888;80;21135;-55
2020/12/26 03:30:54;;;;;;;0.00;0.00;;;;;;;-0.08;100.00;100406.95;1762399;79;21512;-54
2020/12/26 03:33:21;;;;;;;0.10;0.10;;;;;;;-0.09;100.00;100407.47;1776151;79;21722;-55
2020/12/26 03:35:49;;;;;;;0.20;0.20;;;;;;;-0.09;100.00;100415.53;1774891;79;21580;-54
2020/12/26 03:38:17;;;;;;;0.10;0.10;;;;;;;-0.09;100.00;100414.19;1807106;78;21137;-55
2020/12/26 03:40:44;;;;;;;0.98;0.80;;;;;;;-0.09;100.00;100416.05;1791538;78;21120;-55
2020/12/26 03:43:13;;;;;;;1.60;1.45;;;;;;;-0.10;100.00;100417.92;1793151;78;21143;-54
2020/12/26 03:45:41;;;;;;;0.20;0.20;;;;;;;-0.09;100.00;100413.37;1791195;78;21177;-55
2020/12/26 03:48:09;;;;;;;0.10;0.10;;;;;;;-0.10;100.00;100413.89;1794839;78;21566;-55
2020/12/26 03:50:37;;;;;;;0.10;0.10;;;;;;;-0.10;100.00;100416.58;1824084;78;21118;-55
2020/12/26 03:53:04;;;;;;;0.30;0.30;;;;;;;-0.09;100.00;100408.81;1788037;79;21106;-55
2020/12/26 03:55:32;;;;;;;0.00;0.00;;;;;;;-0.09;100.00;100406.13;1789819;80;21470;-54
2020/12/26 03:57:59;;;;;;;0.00;0.00;;;;;;;-0.09;100.00;100410.68;1789441;80;21125;-54
2020/12/26 04:00:26;;;;;;;0.85;0.85;;;;;;;-0.09;100.00;100408.81;1781103;80;21170;-54
2020/12/26 04:02:54;;;;;;;0.72;0.72;;;;;;;-0.10;100.00;100406.33;1774319;80;21146;-52
2020/12/26 04:05:21;;;;;;;0.13;0.13;;;;;;;-0.10;100.00;100410.36;1764341;79;21103;-54
2020/12/26 04:07:51;;;;;;;0.85;0.20;;;;;;;-0.11;100.00;100413.56;1763844;81;21107;-54
2020/12/26 04:10:18;;;;;;;0.00;0.00;;;;;;;-0.10;100.00;100411.20;1798962;78;21138;-55
2020/12/26 04:12:46;;;;;;;0.82;0.60;;;;;;;-0.10;100.00;100413.05;1794457;79;21593;-55
2020/12/26 04:15:13;;;;;;;0.42;0.28;;;;;;;-0.11;100.00;100418.12;1779545;80;21119;-54
2020/12/26 04:17:41;;;;;;;0.10;0.10;;;;;;;-0.13;100.00;100408.91;1796952;79;21130;-54
2020/12/26 04:20:09;;;;;;;0.95;0.90;;;;;;;-0.13;100.00;100418.84;1761588;80;21135;-55
2020/12/26 04:22:37;;;;;;;0.30;0.30;;;;;;;-0.15;100.00;100419.04;1791471;79;21155;-55
2020/12/26 04:25:04;;;;;;;0.00;0.00;;;;;;;-0.14;100.00;100426.08;1792021;78;21136;-55
2020/12/26 04:27:32;;;;;;;0.00;0.00;;;;;;;-0.14;100.00;100430.11;1792013;78;21090;-55
2020/12/26 04:30:00;;;;;;;0.00;0.00;;;;;;;-0.14;100.00;100438.17;1763160;79;21166;-55
2020/12/26 04:32:28;;;;;;;0.10;0.10;;;;;;;-0.13;100.00;100437.13;1761805;81;21131;-55
2020/12/26 04:34:55;;;;;;;0.03;0.03;;;;;;;-0.13;100.00;100435.78;1792538;78;21170;-55
2020/12/26 04:37:25;;;;;;;0.00;0.00;;;;;;;-0.11;100.00;100440.43;1763696;81;21126;-54
2020/12/26 04:39:53;;;;;;;0.10;0.10;;;;;;;-0.10;100.00;100430.50;1744151;80;21095;-54
2020/12/26 04:42:21;;;;;;;0.00;0.00;;;;;;;-0.09;100.00;100434.86;1823820;78;21107;-55
2020/12/26 04:44:50;;;;;;;0.00;0.00;;;;;;;-0.09;100.00;100438.36;1789687;80;21174;-55
2020/12/26 04:47:22;;;;;;;0.45;0.45;;;;;;;-0.09;100.00;100445.60;1776582;79;21134;-55
2020/12/26 04:49:50;;;;;;;;;;;;;;;-0.09;100.00;100446.42;1825384;78;21492;-55
2020/12/26 04:52:18;;;;;;;0.00;0.00;;;;;;;-0.08;100.00;100450.75;1794838;79;20284;-55
2020/12/26 04:54:46;;;;;;;0.00;0.00;;;;;;;-0.09;100.00;100449.11;1736943;81;21184;-54
2020/12/26 04:57:13;;;;;;;0.20;0.20;;;;;;;-0.09;100.00;100450.45;1775151;79;21154;-54
2020/12/26 04:59:41;;;;;;;0.10;0.10;;;;;;;-0.10;100.00;100451.50;1772483;79;21148;-55
2020/12/26 05:02:11;;;;;;;0.03;0.03;;;;;;;-0.09;100.00;100453.66;1763577;81;21175;-55
2020/12/26 05:04:38;;;;;;;0.00;0.00;;;;;;;-0.08;100.00;100456.64;1739584;79;21134;-54
2020/12/26 05:07:06;;;;;;;0.10;0.10;;;;;;;-0.08;100.00;100464.18;1764175;80;21165;-54
2020/12/26 05:09:34;;;;;;;0.28;0.28;;;;;;;-0.09;100.00;100459.85;1792576;79;21122;-54
2020/12/26 05:12:01;;;;;;;0.25;0.25;;;;;;;-0.08;100.00;100464.18;1763203;81;21129;-54
2020/12/26 05:14:30;;;;;;;0.53;0.20;;;;;;;-0.08;100.00;100468.20;1747249;80;21337;-54
2020/12/26 05:16:58;;;;;;;0.00;0.00;;;;;;;-0.06;100.00;100478.76;1753328;81;21578;-55
2020/12/26 05:19:25;;;;;;;0.20;0.20;;;;;;;-0.07;100.00;100481.97;1789013;80;21110;-54
2020/12/26 05:21:55;;;;;;;0.00;0.00;;;;;;;-0.07;100.00;100496.74;1794549;79;21110;-54
2020/12/26 05:24:22;;;;;;;0.33;0.33;;;;;;;-0.06;100.00;100497.03;1770963;80;21156;-55
2020/12/26 05:26:52;;;;;;;0.05;0.05;;;;;;;-0.05;100.00;100500.05;1782346;80;21198;-54
2020/12/26 05:29:21;;;;;;;0.00;0.00;;;;;;;-0.03;100.00;100509.23;1786044;80;21126;-54
2020/12/26 05:31:54;;;;;;;0.30;0.30;;;;;;;-0.02;100.00;100515.75;1785919;80;21095;-55
2020/12/26 05:34:33;;;;;;;0.00;0.00;;;;;;;0.00;100.00;100523.61;1785210;80;21512;-55
2020/12/26 05:37:04;;;;;;;0.00;0.00;;;;;;;0.01;100.00;100527.12;1777750;80;21134;-55
2020/12/26 05:39:36;;;;;;;0.00;0.00;;;;;;;0.00;100.00;100538.39;1754879;80;21143;-55
2020/12/26 05:42:05;;;;;;;0.20;0.20;;;;;;;0.02;100.00;100548.91;1758117;81;21165;-54
2020/12/26 05:44:36;;;;;;;0.00;0.00;;;;;;;0.04;100.00;100556.25;1757811;81;21118;-55
2020/12/26 05:47:06;;;;;;;0.33;0.33;;;;;;;0.05;100.00;100557.39;1784484;80;21114;-55
2020/12/26 05:49:37;;;;;;;0.03;0.03;;;;;;;0.04;100.00;100562.97;1788968;80;21453;-55
2020/12/26 05:52:12;;;;;;;0.35;0.35;;;;;;;0.04;100.00;100573.19;1788920;80;21122;-54
2020/12/26 05:54:51;;;;;;;0.10;0.10;;;;;;;0.06;100.00;100577.02;1761779;81;21130;-55
2020/12/26 05:57:19;;;;;;;0.00;0.00;;;;;;;0.08;100.00;100584.37;1762169;81;21180;-54
2020/12/26 05:59:50;;;;;;;0.05;0.05;;;;;;;0.08;100.00;100580.34;1761546;81;21218;-54
2020/12/26 06:02:28;;;;;;;0.10;0.10;;;;;;;0.08;100.00;100573.09;1742604;81;21177;-55
2020/12/26 06:05:02;;;;;;;0.00;0.00;;;;;;;0.09;99.96;100581.45;1749013;81;21138;-55
2020/12/26 06:07:36;;;;;;;0.10;0.10;;;;;;;0.09;99.90;100580.63;1761896;81;21130;-55
2020/12/26 06:10:06;;;;;;;0.10;0.10;;;;;;;0.09;99.79;100581.98;1762991;80;21553;-55
2020/12/26 06:12:33;;;;;;;0.10;0.10;;;;;;;0.10;99.67;100589.84;1765205;80;21119;-54
2020/12/26 06:15:00;;;;;;;0.00;0.00;;;;;;;0.12;99.57;100600.36;1764615;80;21141;-55
2020/12/26 06:17:31;;;;;;;0.00;0.00;;;;;;;0.12;99.47;100605.73;1759971;81;21145;-54
2020/12/26 06:20:07;;;;;;;0.40;0.30;;;;;;;0.12;99.42;100613.80;1781441;79;21155;-50
2020/12/26 06:22:45;;;;;;;0.15;0.15;;;;;;;0.13;99.36;100615.48;1763459;80;21510;-49
2020/12/26 06:25:17;;;;;;;0.30;0.30;;;;;;;0.14;99.24;100609.05;1788891;79;21111;-51
2020/12/26 06:27:58;;;;;;;0.00;0.00;;;;;;;0.16;99.16;100608.34;1792570;78;21139;-50
2020/12/26 06:30:27;;;;;;;0.00;0.00;;;;;;;0.16;99.08;100604.30;1787044;80;21106;-49
2020/12/26 06:32:55;;;;;;;0.00;0.00;;;;;;;0.16;99.01;100604.30;1763488;79;21135;-49
2020/12/26 06:35:23;;;;;;;0.45;0.45;;;;;;;0.17;98.92;100616.20;1772437;79;21449;-50
2020/12/26 06:38:11;;;;;;;0.90;0.68;;;;;;;0.19;98.88;100621.34;1814528;78;21138;-49
2020/12/26 06:41:06;;;;;;;0.20;0.20;;;;;;;0.19;98.84;100615.97;1791101;79;21149;-50
2020/12/26 06:43:53;;;;;;;0.15;0.15;;;;;;;0.20;98.72;100618.47;1768424;79;21609;-50
2020/12/26 06:46:27;;;;;;;0.08;0.08;;;;;;;0.22;98.64;100611.52;1765813;79;21134;-51
2020/12/26 06:48:57;;;;;;;0.00;0.00;;;;;;;0.24;98.53;100624.24;1805124;78;21299;-51
2020/12/26 06:51:36;;;;;;;0.10;0.10;;;;;;;0.24;98.50;100618.05;1790603;80;21476;-50
2020/12/26 06:54:04;;;;;;;0.00;0.00;;;;;;;0.25;98.48;100627.75;1777950;79;21138;-50
2020/12/26 06:56:43;;;;;;;0.00;0.00;;;;;;;0.26;98.41;100618.15;1773074;79;21166;-50
2020/12/26 06:59:11;;;;;;;0.28;0.28;;;;;;;0.28;98.40;100621.98;1764156;81;21186;-49
2020/12/26 07:01:45;;;;;;;0.82;0.60;;;;;;;0.29;98.37;100629.82;1766242;79;21162;-50
2020/12/26 07:04:21;;;;;;;0.00;0.00;;;;;;;0.31;98.37;100628.28;1773194;79;21113;-50
2020/12/26 07:06:53;;;;;;;0.25;0.25;;;;;;;0.33;98.33;100628.91;1775080;79;21130;-50
2020/12/26 07:09:41;;;;;;;0.13;0.13;;;;;;;0.35;98.18;100622.29;1788855;79;21122;-50
2020/12/26 07:12:09;;;;;;;0.23;0.20;;;;;;;0.37;98.06;100624.75;1785864;79;21145;-50
2020/12/26 07:14:45;;;;;;;0.55;0.33;;;;;;;0.38;97.98;100621.05;1789775;79;21430;-49
2020/12/26 07:17:25;;;;;;;0.40;0.40;;;;;;;0.40;97.94;100632.42;1790299;79;21122;-50
2020/12/26 07:19:54;;;;;;;0.10;0.10;;;;;;;0.42;97.85;100631.17;1775726;79;21493;-51
2020/12/26 07:22:28;;;;;;;0.00;0.00;;;;;;;0.44;97.73;100636.33;1771057;79;21135;-49
2020/12/26 07:25:02;;;;;;;0.00;0.00;;;;;;;0.45;97.53;100626.42;1777861;79;21130;-50
2020/12/26 07:27:31;;;;;;;0.08;0.08;;;;;;;0.46;97.48;100644.20;1769277;79;21121;-50
2020/12/26 07:30:07;;;;;;;0.17;0.17;;;;;;;0.46;97.36;100642.85;1769870;79;21118;-50
2020/12/26 07:32:43;;;;;;;0.03;0.03;;;;;;;0.48;97.26;100648.86;1776078;79;21859;-48
2020/12/26 07:35:25;;;;;;;0.00;0.00;;;;;;;0.48;97.16;100644.30;1763957;79;21143;-50
2020/12/26 07:37:57;;;;;;;1.17;0.20;;;;;;;0.50;96.86;100651.64;1786869;79;29165;-49
2020/12/26 07:40:35;;;;;;;0.75;0.60;;;;;;;0.53;96.61;100645.02;1814774;78;21616;-50
2020/12/26 07:43:11;;;;;;;0.10;0.10;;;;;;;0.55;96.47;100642.44;1765034;79;21121;-50
2020/12/26 07:45:41;;;;;;;0.20;0.20;;;;;;;0.57;96.39;100644.89;1785758;80;21178;-50
2020/12/26 07:48:09;;;;;;;0.00;0.00;;;;;;;0.59;96.35;100648.20;1792799;78;21654;-51
2020/12/26 07:50:40;;;;;;;0.08;0.08;;;;;;;0.59;96.28;100645.52;1797910;78;21175;-49
2020/12/26 07:53:09;;;;;;;0.13;0.13;;;;;;;0.59;96.16;100658.47;1787400;79;21165;-49
2020/12/26 07:55:37;;;;;;;0.10;0.10;;;;;;;0.60;96.07;100663.33;1798269;79;21150;-49
2020/12/26 07:58:13;;;;;;;0.00;0.00;;;;;;;0.62;95.95;100657.23;1781910;79;21478;-50
2020/12/26 08:00:42;;;;;;;0.20;0.20;;;;;;;0.62;95.94;100656.70;1775561;79;21181;-49
2020/12/26 08:03:12;;;;;;;0.10;0.10;;;;;;;0.64;95.91;100664.05;1803082;78;21140;-49
2020/12/26 08:05:48;;;;;;;1.37;1.27;;;;;;;0.69;95.92;100668.77;1780318;79;21182;-50
2020/12/26 08:08:21;;;;;;;0.00;0.00;;;;;;;0.74;95.91;100674.38;1775511;79;21189;-50
2020/12/26 08:10:47;;;;;;;0.53;0.42;;;;;;;0.78;95.77;100675.59;1770958;79;21983;-51
2020/12/26 08:13:16;;;;;;;0.10;0.10;;;;;;;0.85;95.63;100672.91;1777316;79;21193;-49
2020/12/26 08:15:43;;;;;;;0.00;0.00;;;;;;;0.89;95.53;100675.98;1780389;79;21157;-50
2020/12/26 08:18:11;;;;;;;0.10;0.10;;;;;;;0.93;95.28;100680.75;1775465;79;21091;-50
2020/12/26 08:20:38;;;;;;;0.15;0.15;;;;;;;0.95;95.15;100686.75;1772784;79;21229;-49
2020/12/26 08:23:11;;;;;;;0.62;0.62;;;;;;;0.99;95.14;100687.14;1774284;79;21440;-50
2020/12/26 08:25:39;;;;;;;0.10;0.10;;;;;;;1.01;94.95;100691.80;1803091;78;21194;-49
2020/12/26 08:28:10;;;;;;;0.00;0.00;;;;;;;1.04;94.74;100696.27;1782143;79;21143;-50
2020/12/26 08:30:38;;;;;;;0.00;0.00;;;;;;;1.07;94.61;100704.43;1783400;79;21157;-50
2020/12/26 08:33:11;;;;;;;0.10;0.10;;;;;;;1.10;94.46;100698.63;1779649;79;21102;-49
2020/12/26 08:35:55;;;;;;;0.10;0.10;;;;;;;1.13;94.31;100700.88;1780849;79;21161;-50
2020/12/26 08:38:27;;;;;;;0.90;0.62;;;;;;;1.13;94.07;100700.88;1766847;79;21176;-50
2020/12/26 08:40:56;;;;;;;0.20;0.17;;;;;;;1.15;93.88;100697.47;1772626;79;21164;-49
2020/12/26 08:43:24;;;;;;;0.20;0.20;;;;;;;1.18;93.72;100688.14;1791653;79;21416;-49
2020/12/26 08:45:51;;;;;;;0.20;0.20;;;;;;;1.22;93.02;100685.34;1770081;80;21093;-51
2020/12/26 08:48:23;;;;;;;0.10;0.10;;;;;;;1.23;92.72;100682.42;1777371;79;21146;-49
2020/12/26 08:50:56;;;;;;;0.20;0.20;;;;;;;1.24;92.40;100677.36;1788989;79;22144;-48
2020/12/26 08:53:25;;;;;;;0.30;0.08;;;;;;;1.24;92.26;100677.36;1791089;80;21551;-49
2020/12/26 08:55:54;;;;;;;2.08;1.00;;;;;;;1.25;91.77;100688.95;1788509;78;21107;-50
2020/12/26 08:58:30;;;;;;;0.10;0.10;;;;;;;1.29;91.63;100709.86;1765470;80;21118;-50
2020/12/26 09:01:03;;;;;;;0.55;0.55;;;;;;;1.33;90.91;100729.09;1794864;79;21137;-50
2020/12/26 09:03:33;;;;;;;0.00;0.00;;;;;;;1.37;89.90;100718.74;1795101;79;21122;-49
2020/12/26 09:06:02;;;;;;;0.15;0.15;;;;;;;1.40;89.69;100708.36;1794989;79;21144;-49
2020/12/26 09:08:34;;;;;;;0.00;0.00;;;;;;;1.44;89.08;100703.39;1777398;79;21175;-51
2020/12/26 09:11:05;;;;;;;0.10;0.10;;;;;;;1.48;88.23;100704.11;1791330;80;21227;-48
2020/12/26 09:13:35;;;;;;;0.10;0.10;;;;;;;1.54;87.67;100685.44;1789674;80;21141;-49
2020/12/26 09:16:13;;;;;;;0.00;0.00;;;;;;;1.60;87.39;100675.95;1774901;79;21789;-48
2020/12/26 09:18:46;;;;;;;0.30;0.30;;;;;;;1.65;87.24;100677.48;1788262;79;21150;-50
2020/12/26 09:21:25;;;;;;;0.00;0.00;;;;;;;1.68;86.13;100683.81;1788659;80;21136;-49
2020/12/26 09:23:55;;;;;;;0.15;0.15;;;;;;;1.69;85.45;100671.98;1795737;79;21118;-49
2020/12/26 09:26:28;;;;;;;0.00;0.00;;;;;;;1.70;84.65;100657.45;1785995;78;21164;-49
2020/12/26 09:29:00;;;;;;;0.10;0.10;;;;;;;1.70;83.47;100655.29;1782820;79;21294;-48
2020/12/26 09:31:31;;;;;;;0.55;0.30;;;;;;;1.70;83.63;100656.11;1789509;80;21130;-48
2020/12/26 09:34:01;;;;;;;0.10;0.10;;;;;;;1.70;82.94;100674.15;1795494;79;21263;-48
2020/12/26 09:36:28;;;;;;;0.10;0.10;;;;;;;1.68;82.91;100678.42;1782993;79;21481;-48
2020/12/26 09:38:56;;;;;;;0.23;0.20;;;;;;;1.66;82.53;100683.72;1789280;80;21222;-49
2020/12/26 09:41:25;;;;;;;0.60;0.47;;;;;;;1.66;82.14;100683.20;1787386;80;21132;-50
2020/12/26 09:43:54;;;;;;;0.20;0.20;;;;;;;1.70;81.59;100682.23;1782175;79;21138;-48
2020/12/26 09:46:23;;;;;;;0.00;0.00;;;;;;;1.71;80.80;100688.77;1769903;81;21122;-48
2020/12/26 09:48:50;;;;;;;0.10;0.10;;;;;;;1.76;79.99;100699.42;1769962;81;21141;-50
2020/12/26 09:51:21;;;;;;;0.65;0.62;;;;;;;1.81;79.39;100702.30;1770104;81;21546;-49
2020/12/26 09:53:50;;;;;;;0.15;0.15;;;;;;;1.84;78.84;100695.95;1778948;79;21166;-47
2020/12/26 09:56:17;;;;;;;0.10;0.10;;;;;;;1.88;78.39;100704.41;1801939;79;21695;-48
2020/12/26 09:58:45;;;;;;;0.17;0.17;;;;;;;1.91;77.99;100706.70;1802120;79;21176;-49
2020/12/26 10:01:17;;;;;;;0.00;0.00;;;;;;;1.90;77.21;100707.22;1801897;79;21201;-48
2020/12/26 10:03:52;;;;;;;0.00;0.00;;;;;;;1.96;77.46;100700.14;1853102;76;29090;-48
2020/12/26 10:06:20;;;;;;;0.53;0.53;;;;;;;1.92;77.52;100705.64;1820656;78;21567;-47
2020/12/26 10:08:48;;;;;;;0.00;0.00;;;;;;;1.93;77.44;100712.70;1820690;78;21142;-48
2020/12/26 10:11:17;;;;;;;0.00;0.00;;;;;;;1.99;77.30;100705.61;1764662;80;21577;-48
2020/12/26 10:13:46;;;;;;;0.00;0.00;;;;;;;1.99;77.31;100710.48;1743287;81;21182;-49
2020/12/26 10:16:17;;;;;;;2.30;0.98;;;;;;;2.03;76.84;100729.23;1769274;80;21146;-49
2020/12/26 10:18:45;;;;;;;0.00;0.00;;;;;;;2.06;76.66;100726.09;1765720;80;21174;-48
2020/12/26 10:21:16;;;;;;;0.33;0.33;;;;;;;2.07;76.28;100720.17;1754785;81;21126;-48
2020/12/26 10:23:44;;;;;;;0.08;0.08;;;;;;;2.07;75.70;100711.56;1748006;81;21601;-48
2020/12/26 10:26:12;;;;;;;0.10;0.10;;;;;;;2.13;75.51;100708.54;1744467;82;21114;-49
2020/12/26 10:28:39;;;;;;;0.93;0.13;;;;;;;2.14;75.21;100704.26;1741374;81;21138;-50
2020/12/26 10:31:06;;;;;;;0.00;0.00;;;;;;;2.13;74.96;100703.97;1728377;81;21548;-48
2020/12/26 10:33:34;;;;;;;0.00;0.00;;;;;;;2.13;75.35;100703.97;1740695;81;21664;-48
2020/12/26 10:36:01;;;;;;;0.00;0.00;;;;;;;2.13;74.99;100698.58;1744263;82;21151;-50
2020/12/26 10:38:29;;;;;;;0.10;0.10;;;;;;;2.13;74.51;100705.31;1752595;81;21158;-49
2020/12/26 10:40:57;;;;;;;0.00;0.00;;;;;;;2.12;74.46;100711.73;1757459;81;21139;-49
2020/12/26 10:43:25;;;;;;;0.00;0.00;;;;;;;2.10;74.58;100709.80;1756956;81;21500;-49
2020/12/26 10:45:54;;;;;;;1.20;1.10;;;;;;;2.06;74.48;100719.35;1749008;81;21446;-49
2020/12/26 10:48:22;;;;;;;0.00;0.00;;;;;;;2.06;75.07;100717.19;1740205;82;21586;-50
2020/12/26 10:50:49;;;;;;;0.10;0.10;;;;;;;2.08;75.07;100716.45;1741985;81;21118;-49
2020/12/26 10:53:17;;;;;;;0.00;0.00;;;;;;;2.09;75.49;100721.61;1752129;81;21154;-48
2020/12/26 10:55:44;;;;;;;0.00;0.00;;;;;;;2.13;75.43;100732.27;1753499;81;21142;-49
2020/12/26 10:58:13;;;;;;;0.20;0.20;;;;;;;2.17;74.89;100723.75;1725177;82;21155;-51
2020/12/26 11:00:41;;;;;;;0.08;0.08;;;;;;;2.18;74.80;100719.99;1734775;81;21131;-48
2020/12/26 11:03:08;;;;;;;0.30;0.30;;;;;;;2.18;74.43;100715.45;1729397;81;21136;-49
2020/12/26 11:05:36;;;;;;;0.03;0.03;;;;;;;2.22;74.35;100725.27;1727458;82;21998;-48
2020/12/26 11:08:03;;;;;;;0.03;0.03;;;;;;;2.24;75.08;100721.84;1727396;83;22038;-50
2020/12/26 11:10:31;;;;;;;0.85;0.62;;;;;;;2.23;74.16;100721.55;1746669;80;21202;-49
2020/12/26 11:13:00;;;;;;;0.45;0.10;;;;;;;2.22;74.34;100721.22;1756812;81;21603;-50
2020/12/26 11:15:27;;;;;;;0.82;0.80;;;;;;;2.25;74.25;100730.22;1756478;81;21158;-48
2020/12/26 11:17:54;;;;;;;0.37;0.37;;;;;;;2.27;74.17;100737.05;1755916;81;21146;-50
2020/12/26 11:20:26;;;;;;;0.10;0.10;;;;;;;2.31;74.20;100744.20;1736267;81;21171;-49
2020/12/26 11:22:53;;;;;;;0.42;0.20;;;;;;;2.35;74.46;100745.42;1723627;82;21613;-49
2020/12/26 11:25:21;;;;;;;0.55;0.55;;;;;;;2.37;74.42;100744.66;1729523;81;21194;-49
2020/12/26 11:27:48;;;;;;;0.20;0.20;;;;;;;2.40;74.54;100740.20;1740846;81;21554;-48
2020/12/26 11:30:16;;;;;;;0.28;0.28;;;;;;;2.44;74.64;100752.19;1725468;82;21137;-50
2020/12/26 11:32:43;;;;;;;0.00;0.00;;;;;;;2.49;74.29;100752.35;1721504;83;21574;-49
2020/12/26 11:35:10;;;;;;;0.10;0.10;;;;;;;2.54;74.21;100740.38;1752755;80;21158;-49
2020/12/26 11:37:38;;;;;;;0.00;0.00;;;;;;;2.58;73.84;100769.94;1764739;80;21155;-50